Time;durP1;ratioP1;P1;durP2;ratioP2;P2;SDS_P1;SDS_P2;PMS_P1;PMS_P2;Temp;Humidity;BMP_temperature;BMP_pressure;BME280_temperature;BME280_humidity;BME280_pressure;Samples;Min_cycle;Max_cycle;Signal;HPM_P1;HPM_P2
2021/11/08 10:48:11;;;;;;;39.30;12.38;;;8.20;99.90;;;;;;5070665;28;21176;-82
2021/11/08 10:50:41;;;;;;;36.63;11.48;;;8.90;99.90;;;;;;5070623;28;20194;-82
2021/11/08 10:53:06;;;;;;;28.23;8.65;;;8.50;99.90;;;;;;5069275;28;20537;-83
2021/11/08 10:55:33;;;;;;;25.80;9.00;;;8.70;99.90;;;;;;5070584;28;20176;-82
2021/11/08 10:58:15;;;;;;;33.08;9.80;;;9.00;99.90;;;;;;5070384;28;20172;-83
2021/11/08 11:00:53;;;;;;;22.70;9.98;;;9.10;99.90;;;;;;5069249;28;20588;-83
2021/11/08 11:03:21;;;;;;;20.33;8.55;;;9.70;99.90;;;;;;5070392;28;20169;-82
2021/11/08 11:06:01;;;;;;;35.45;11.88;;;8.70;99.90;;;;;;5070292;28;20240;-82
2021/11/08 11:08:27;;;;;;;25.63;9.73;;;8.70;99.90;;;;;;5069087;28;20168;-82
2021/11/08 11:10:57;;;;;;;23.30;8.95;;;9.90;99.90;;;;;;5070255;28;20226;-82
2021/11/08 11:13:23;;;;;;;28.25;10.30;;;9.50;99.90;;;;;;5070228;28;20286;-82
2021/11/08 11:15:50;;;;;;;22.67;9.93;;;9.20;99.90;;;;;;5070092;28;20165;-82
2021/11/08 11:18:17;;;;;;;28.73;10.98;;;9.40;99.90;;;;;;5070079;28;20173;-82
2021/11/08 11:20:45;;;;;;;30.05;10.77;;;10.10;99.90;;;;;;5070084;28;20203;-83
2021/11/08 11:23:26;;;;;;;28.58;10.07;;;8.90;99.90;;;;;;5068772;28;20172;-82
2021/11/08 11:26:00;;;;;;;26.25;9.20;;;9.10;99.90;;;;;;5068657;28;20678;-82
2021/11/08 11:28:34;;;;;;;25.50;9.73;;;9.60;99.90;;;;;;5068638;28;20180;-82
2021/11/08 11:41:42;;;;;;;23.92;7.88;;;9.10;99.90;;;;;;5090977;28;20540;-81
2021/11/08 11:44:24;;;;;;;23.17;6.85;;;9.20;99.90;;;;;;5089680;28;20289;-82
2021/11/08 11:46:54;;;;;;;22.30;6.68;;;9.70;99.90;;;;;;5089702;28;20290;-82
2021/11/08 11:49:20;;;;;;;29.15;7.93;;;9.30;99.90;;;;;;5089476;28;20176;-82
2021/11/08 11:51:51;;;;;;;25.52;7.63;;;9.30;99.90;;;;;;5091051;28;20171;-81
2021/11/08 11:54:20;;;;;;;18.70;8.30;;;9.30;99.90;;;;;;5089734;28;20225;-81
2021/11/08 11:56:49;;;;;;;21.77;8.80;;;9.80;99.90;;;;;;5089341;28;20180;-81
2021/11/08 11:59:17;;;;;;;25.48;7.13;;;9.30;99.90;;;;;;5089222;28;20206;-82
2021/11/08 12:01:44;;;;;;;23.60;8.25;;;9.40;99.90;;;;;;5090539;28;20195;-82
2021/11/08 12:04:11;;;;;;;26.20;8.68;;;9.40;99.90;;;;;;5089448;28;20172;-83
2021/11/08 12:06:39;;;;;;;27.10;8.27;;;9.70;99.90;;;;;;5089178;28;20164;-81
2021/11/08 12:09:08;;;;;;;31.08;8.38;;;9.30;99.90;;;;;;5089016;28;20528;-81
2021/11/08 12:11:39;;;;;;;21.08;8.75;;;9.60;99.90;;;;;;5090402;28;20175;-82
2021/11/08 12:14:18;;;;;;;25.60;7.80;;;10.00;99.90;;;;;;5090371;28;20536;-81
2021/11/08 12:16:58;;;;;;;22.17;8.40;;;9.30;99.90;;;;;;5090269;28;20163;-81
2021/11/08 12:19:31;;;;;;;27.25;8.88;;;9.30;99.90;;;;;;5088822;28;20516;-81
2021/11/08 12:21:57;;;;;;;24.92;8.00;;;9.20;99.90;;;;;;5090119;28;20168;-82
2021/11/08 12:24:28;;;;;;;21.13;7.80;;;10.00;99.90;;;;;;5090149;28;20198;-81
2021/11/08 12:27:09;;;;;;;23.60;8.25;;;9.20;99.90;;;;;;5090038;28;20176;-81
2021/11/08 12:29:51;;;;;;;33.33;9.07;;;9.20;99.90;;;;;;5090016;28;20683;-81
2021/11/08 12:32:17;;;;;;;21.02;8.43;;;9.20;99.90;;;;;;5088900;28;20730;-81
2021/11/08 12:34:47;;;;;;;28.10;8.52;;;9.20;99.90;;;;;;5088626;28;20310;-81
2021/11/08 12:37:14;;;;;;;21.30;7.93;;;9.20;99.90;;;;;;5088568;28;20562;-81
2021/11/08 12:39:41;;;;;;;20.25;8.82;;;9.20;99.90;;;;;;5088323;28;20235;-82
2021/11/08 12:42:12;;;;;;;25.23;7.20;;;9.90;99.90;;;;;;5089792;28;20168;-82
2021/11/08 12:44:45;;;;;;;25.90;7.30;;;9.20;99.90;;;;;;5088481;28;20513;-81
2021/11/08 12:47:12;;;;;;;21.17;7.75;;;9.30;99.90;;;;;;5088415;28;20172;-81
2021/11/08 12:49:49;;;;;;;18.23;6.60;;;10.20;99.90;;;;;;5088276;28;20170;-81
2021/11/08 13:31:35;;;;;;;26.35;7.65;;;8.80;99.90;;;;;;5090839;27;20979;-81
2021/11/08 13:34:00;;;;;;;26.63;10.55;;;8.90;99.90;;;;;;5090923;28;20179;-81
2021/11/08 13:36:26;;;;;;;28.75;9.15;;;8.90;99.90;;;;;;5089542;28;20179;-83
2021/11/08 13:38:55;;;;;;;26.75;7.68;;;9.80;99.90;;;;;;5089551;28;20179;-81
2021/11/08 13:41:25;;;;;;;32.85;8.93;;;9.60;99.90;;;;;;5089581;28;20210;-82
2021/11/08 13:43:57;;;;;;;21.48;8.15;;;9.20;99.90;;;;;;5089374;28;20176;-81
2021/11/08 13:46:30;;;;;;;22.80;7.70;;;10.40;99.90;;;;;;5089434;28;20196;-82
2021/11/08 13:48:58;;;;;;;24.75;8.23;;;9.10;99.90;;;;;;5089301;28;20251;-81
2021/11/08 13:51:30;;;;;;;22.52;8.10;;;9.20;99.90;;;;;;5089164;28;20660;-81
2021/11/08 13:54:10;;;;;;;39.00;8.43;;;9.20;99.90;;;;;;5091116;28;20199;-81
2021/11/08 13:56:39;;;;;;;30.65;7.63;;;9.20;99.90;;;;;;5095358;28;20501;-81
2021/11/08 13:59:11;;;;;;;31.73;8.25;;;9.70;99.90;;;;;;5093018;28;20206;-80
2021/11/08 14:01:42;;;;;;;29.73;8.38;;;10.10;99.90;;;;;;5093755;28;20270;-80
2021/11/08 14:04:08;;;;;;;26.08;7.15;;;9.40;99.90;;;;;;5093865;28;20617;-80
2021/11/08 14:06:37;;;;;;;21.45;6.93;;;9.30;99.90;;;;;;5095297;28;20198;-80
2021/11/08 14:09:07;;;;;;;22.70;7.20;;;9.20;99.90;;;;;;5093249;28;20172;-81
2021/11/08 14:11:36;;;;;;;25.48;7.80;;;9.30;99.90;;;;;;5090932;28;20533;-82
2021/11/08 14:14:14;;;;;;;26.73;7.18;;;9.30;99.90;;;;;;5090172;28;20170;-81
2021/11/08 14:16:42;;;;;;;19.27;6.97;;;10.60;99.90;;;;;;5090075;28;20190;-80
2021/11/08 14:19:09;;;;;;;28.70;7.88;;;9.30;99.90;;;;;;5090021;28;20166;-81
2021/11/08 14:21:37;;;;;;;30.38;9.15;;;9.20;99.90;;;;;;5089902;28;20160;-81
2021/11/08 14:24:09;;;;;;;30.92;8.05;;;9.20;99.90;;;;;;5090068;28;20187;-81
2021/11/08 14:26:37;;;;;;;24.48;7.18;;;9.50;99.90;;;;;;5088749;28;20259;-81
2021/11/08 14:29:12;;;;;;;21.63;7.40;;;9.30;99.90;;;;;;5089937;28;20182;-81
2021/11/08 14:31:38;;;;;;;20.33;7.50;;;9.40;99.90;;;;;;5089776;28;20184;-81
2021/11/08 14:34:06;;;;;;;18.02;6.75;;;9.30;99.90;;;;;;5088469;28;20172;-81
2021/11/08 14:36:40;;;;;;;19.65;6.20;;;9.30;99.90;;;;;;5089868;28;20194;-81
2021/11/08 14:39:11;;;;;;;28.08;7.75;;;9.50;99.90;;;;;;5088342;28;20172;-81
2021/11/08 14:41:37;;;;;;;22.98;6.63;;;9.30;99.90;;;;;;5082289;28;20241;-81
2021/11/08 14:44:08;;;;;;;24.05;6.47;;;9.80;99.90;;;;;;5074772;28;20184;-81
2021/11/08 14:46:43;;;;;;;20.63;6.80;;;9.30;99.90;;;;;;5074726;28;20172;-82
2021/11/08 14:49:30;;;;;;;20.15;6.47;;;10.40;99.90;;;;;;5075896;28;20175;-81
2021/11/08 14:51:58;;;;;;;34.72;7.40;;;10.00;99.90;;;;;;5074304;28;20195;-80
2021/11/08 14:54:25;;;;;;;21.20;6.90;;;9.30;99.90;;;;;;5075855;28;20175;-80
2021/11/08 14:56:54;;;;;;;34.72;6.20;;;9.30;99.90;;;;;;5074968;28;20173;-80
2021/11/08 14:59:35;;;;;;;36.15;7.72;;;9.30;99.90;;;;;;5076126;28;20326;-80
2021/11/08 15:02:12;;;;;;;20.55;6.38;;;9.30;99.90;;;;;;5076062;28;20168;-80
